createdAt,value
2023-03-25T00:06:56.302Z,10.92
2023-03-25T00:17:01.457Z,10.94
2023-03-25T00:27:05.102Z,10.75
2023-03-25T00:37:10.939Z,10.61
2023-03-25T00:47:20.685Z,10.56
2023-03-25T00:57:24.456Z,10.62
2023-03-25T01:07:30.594Z,10.80
2023-03-25T01:17:35.198Z,10.82
2023-03-25T01:27:41.536Z,10.69
2023-03-25T01:37:47.665Z,10.67
2023-03-25T01:48:03.103Z,10.67
2023-03-25T01:58:14.265Z,10.47
2023-03-25T02:08:21.055Z,10.33
2023-03-25T02:18:38.000Z,10.14
2023-03-25T02:28:56.349Z,10.06
2023-03-25T02:39:08.484Z,10.02
2023-03-25T02:49:21.809Z,10.06
2023-03-25T02:59:33.614Z,10.18
2023-03-25T03:10:21.639Z,10.26
2023-03-25T03:20:53.119Z,10.26
2023-03-25T03:31:09.629Z,10.15
2023-03-25T03:41:20.825Z,10.01
2023-03-25T03:51:39.793Z,9.89
2023-03-25T04:01:56.684Z,9.82
2023-03-25T04:12:06.796Z,9.68
2023-03-25T04:22:10.492Z,9.49
2023-03-25T04:32:17.969Z,9.36
2023-03-25T04:42:27.666Z,9.25
2023-03-25T04:52:31.377Z,9.21
2023-03-25T05:02:34.948Z,9.24
2023-03-25T05:12:40.404Z,9.32
2023-03-25T05:22:46.141Z,9.64
2023-03-25T05:32:56.593Z,10.05
2023-03-25T05:43:01.116Z,10.30
2023-03-25T05:53:06.277Z,10.77
2023-03-25T06:03:11.445Z,10.87
2023-03-25T06:13:16.537Z,11.54
2023-03-25T06:23:24.350Z,11.97
2023-03-25T06:33:42.335Z,12.15
2023-03-25T06:43:49.866Z,12.09
2023-03-25T06:54:17.678Z,11.78
2023-03-25T07:04:21.415Z,12.05
2023-03-25T07:14:25.791Z,12.20
2023-03-25T07:24:31.320Z,12.16
2023-03-25T07:34:35.777Z,12.01
2023-03-25T07:44:39.301Z,12.34
2023-03-25T07:54:44.903Z,11.99
2023-03-25T08:04:49.201Z,12.44
2023-03-25T08:14:54.526Z,12.27
2023-03-25T08:24:59.640Z,12.62
2023-03-25T08:35:08.111Z,12.95
2023-03-25T08:45:15.989Z,13.15
2023-03-25T08:55:19.671Z,13.16
2023-03-25T09:05:28.109Z,12.95
2023-03-25T09:15:34.333Z,13.59
2023-03-25T09:25:38.449Z,13.36
2023-03-25T09:35:42.199Z,13.68
2023-03-25T09:45:48.655Z,14.50
2023-03-25T09:55:53.504Z,14.52
2023-03-25T10:06:21.027Z,14.16
2023-03-25T10:16:51.101Z,14.04
2023-03-25T10:27:20.805Z,14.20
2023-03-25T10:37:39.654Z,14.50
2023-03-25T10:47:47.757Z,14.98
2023-03-25T10:57:52.885Z,15.24
2023-03-25T11:08:18.129Z,15.15
2023-03-25T11:18:34.352Z,15.54
2023-03-25T11:29:02.741Z,15.35
2023-03-25T11:39:23.562Z,15.43
2023-03-25T11:49:29.842Z,15.47
2023-03-25T11:59:39.859Z,15.33
2023-03-25T12:09:57.928Z,15.34
2023-03-25T12:20:13.496Z,15.33
2023-03-25T12:30:36.300Z,15.26
2023-03-25T12:41:11.237Z,15.74
2023-03-25T12:51:43.763Z,15.80
2023-03-25T13:02:16.637Z,15.82
2023-03-25T13:12:23.385Z,15.53
2023-03-25T13:22:35.015Z,15.78
2023-03-25T13:32:50.545Z,15.51
2023-03-25T13:43:20.577Z,15.23
2023-03-25T13:53:56.217Z,14.79
2023-03-25T14:04:20.998Z,14.74
2023-03-25T14:14:25.784Z,14.35
2023-03-25T14:24:33.181Z,13.92
2023-03-25T14:34:39.370Z,13.72
2023-03-25T14:45:06.094Z,13.41
2023-03-25T14:55:19.328Z,13.57
2023-03-25T15:05:29.655Z,13.62
2023-03-25T15:15:52.538Z,13.43
2023-03-25T15:25:58.062Z,13.51
2023-03-25T15:36:35.771Z,13.43
2023-03-25T15:46:58.239Z,13.28
2023-03-25T15:57:17.256Z,13.18
2023-03-25T16:07:30.547Z,12.96
2023-03-25T16:18:22.615Z,12.85
2023-03-25T16:28:39.784Z,12.81
2023-03-25T16:39:53.465Z,12.90
2023-03-25T16:50:00.753Z,13.05
2023-03-25T17:00:17.736Z,13.18
2023-03-25T17:10:27.577Z,13.27
2023-03-25T17:20:37.913Z,13.21
2023-03-25T17:30:44.395Z,12.77
2023-03-25T17:40:58.481Z,12.57
2023-03-25T17:51:04.560Z,12.13
2023-03-25T18:01:10.175Z,11.69
2023-03-25T18:11:13.999Z,11.59
2023-03-25T18:21:21.632Z,11.31
2023-03-25T18:31:26.054Z,10.98
2023-03-25T18:41:31.632Z,10.70
2023-03-25T18:51:37.826Z,10.53
2023-03-25T19:01:42.695Z,10.36
2023-03-25T19:11:47.577Z,10.28
2023-03-25T19:21:54.549Z,10.20
2023-03-25T19:32:00.114Z,10.19
2023-03-25T19:42:04.941Z,10.14
2023-03-25T19:52:08.686Z,10.18
2023-03-25T20:02:12.401Z,10.25
2023-03-25T20:12:16.128Z,10.47
2023-03-25T20:22:24.949Z,10.69
2023-03-25T20:32:39.940Z,10.66
2023-03-25T20:42:47.240Z,10.53
2023-03-25T20:52:51.110Z,10.62
2023-03-25T21:02:55.789Z,10.62
2023-03-25T21:12:59.571Z,10.79
2023-03-25T21:23:05.615Z,10.98
2023-03-25T21:33:10.668Z,11.03
2023-03-25T21:43:16.327Z,10.84
2023-03-25T21:53:19.893Z,10.66
2023-03-25T22:03:30.274Z,10.48
2023-03-25T22:13:36.287Z,10.49
2023-03-25T22:23:42.073Z,10.47
2023-03-25T22:33:46.876Z,10.20
2023-03-25T22:43:50.587Z,9.98
2023-03-25T22:53:54.331Z,9.98
2023-03-25T23:04:02.806Z,9.89
2023-03-25T23:14:10.766Z,9.56
2023-03-25T23:24:14.486Z,9.34
2023-03-25T23:34:18.318Z,9.12
2023-03-25T23:44:22.522Z,8.96
2023-03-25T23:54:27.348Z,8.77
